Time,TemperatureF,DewpointF,PressureIn,WindDirection,WindDirectionDegrees,WindSpeedMPH,WindSpeedGustMPH,Humidity,HourlyPrecipIn,Conditions,Clouds,dailyrainin,SoftwareType,DateUTC
2013-10-12 00:01:00,58.9,54.4,29.92,North,0,0.0,0.0,85,0.00,,,0.00,WUHU216HW,2013-10-12 04:01:00,
2013-10-12 00:02:00,58.9,54.4,29.92,North,0,0.0,0.0,85,0.00,,,0.00,WUHU216HW,2013-10-12 04:02:00,
2013-10-12 00:07:00,58.7,54.2,29.92,North,0,0.0,0.0,85,0.00,,,0.00,WUHU216HW,2013-10-12 04:07:00,
2013-10-12 00:12:00,58.7,54.6,29.92,North,0,0.0,0.0,86,0.00,,,0.00,WUHU216HW,2013-10-12 04:12:00,
2013-10-12 00:17:00,58.7,54.6,29.92,North,0,0.0,0.0,86,0.00,,,0.00,WUHU216HW,2013-10-12 04:17:00,
2013-10-12 00:22:00,58.5,54.6,29.92,North,0,0.0,0.0,87,0.00,,,0.00,WUHU216HW,2013-10-12 04:22:00,
2013-10-12 00:27:00,58.3,54.2,29.92,North,0,0.0,0.0,86,0.00,,,0.00,WUHU216HW,2013-10-12 04:27:00,
2013-10-12 00:32:00,58.3,54.2,29.92,North,0,0.0,0.0,86,0.00,,,0.00,WUHU216HW,2013-10-12 04:32:00,
2013-10-12 00:37:00,58.3,54.2,29.92,North,0,0.0,0.0,86,0.00,,,0.00,WUHU216HW,2013-10-12 04:37:00,
2013-10-12 00:42:00,58.1,54.0,29.92,North,0,0.0,0.0,86,0.00,,,0.00,WUHU216HW,2013-10-12 04:42:00,
2013-10-12 00:47:00,58.0,53.8,29.92,North,0,0.0,0.0,86,0.00,,,0.00,WUHU216HW,2013-10-12 04:47:00,
2013-10-12 00:52:00,58.0,53.8,29.92,North,0,0.0,0.0,86,0.00,,,0.00,WUHU216HW,2013-10-12 04:52:00,
2013-10-12 00:57:00,57.8,53.7,29.92,North,0,0.0,0.0,86,0.00,,,0.00,WUHU216HW,2013-10-12 04:57:00,
2013-10-12 01:02:00,57.6,53.7,29.92,North,0,0.0,0.0,87,0.00,,,0.00,WUHU216HW,2013-10-12 05:02:00,
2013-10-12 01:07:00,57.6,53.7,29.92,North,0,0.0,0.0,87,0.00,,,0.00,WUHU216HW,2013-10-12 05:07:00,
2013-10-12 01:12:00,57.6,53.7,29.92,North,0,0.0,0.0,87,0.00,,,0.00,WUHU216HW,2013-10-12 05:12:00,
2013-10-12 01:17:00,57.4,53.6,29.92,North,0,0.0,0.0,87,0.00,,,0.00,WUHU216HW,2013-10-12 05:17:00,
2013-10-12 01:22:00,57.4,53.6,29.92,North,0,0.0,0.0,87,0.00,,,0.00,WUHU216HW,2013-10-12 05:22:00,
2013-10-12 01:27:00,57.4,53.6,29.91,North,0,0.0,0.0,87,0.00,,,0.00,WUHU216HW,2013-10-12 05:27:00,
2013-10-12 01:32:00,57.4,53.3,29.91,North,0,0.0,0.0,86,0.00,,,0.00,WUHU216HW,2013-10-12 05:32:00,
2013-10-12 01:37:00,57.2,53.1,29.92,North,0,0.0,0.0,86,0.00,,,0.00,WUHU216HW,2013-10-12 05:37:00,
2013-10-12 01:42:00,57.2,53.1,29.92,North,0,0.0,0.0,86,0.00,,,0.00,WUHU216HW,2013-10-12 05:42:00,
2013-10-12 01:47:00,56.9,52.8,29.92,North,0,0.0,0.0,86,0.00,,,0.00,WUHU216HW,2013-10-12 05:47:00,
2013-10-12 01:52:00,56.7,52.6,29.92,North,0,0.0,0.0,86,0.00,,,0.00,WUHU216HW,2013-10-12 05:52:00,
2013-10-12 01:57:00,56.7,52.6,29.92,North,0,0.0,0.0,86,0.00,,,0.00,WUHU216HW,2013-10-12 05:57:00,
2013-10-12 02:02:00,56.7,52.6,29.92,North,0,0.0,0.0,86,0.00,,,0.00,WUHU216HW,2013-10-12 06:02:00,
2013-10-12 02:07:00,56.5,52.4,29.92,North,0,0.0,0.0,86,0.00,,,0.00,WUHU216HW,2013-10-12 06:07:00,
2013-10-12 02:12:00,56.5,52.4,29.92,North,0,0.0,0.0,86,0.00,,,0.00,WUHU216HW,2013-10-12 06:12:00,
2013-10-12 02:17:00,56.5,52.4,29.92,North,0,0.0,0.0,86,0.00,,,0.00,WUHU216HW,2013-10-12 06:17:00,
2013-10-12 02:32:00,56.2,52.3,29.92,North,0,0.0,0.0,87,0.00,,,0.00,WUHU216HW,2013-10-12 06:32:00,
2013-10-12 02:37:00,56.3,52.2,29.92,North,0,0.0,0.0,86,0.00,,,0.00,WUHU216HW,2013-10-12 06:37:00,
2013-10-12 02:42:00,56.3,52.2,29.92,North,0,0.0,0.0,86,0.00,,,0.00,WUHU216HW,2013-10-12 06:42:00,
2013-10-12 02:47:00,56.2,52.0,29.92,North,0,0.0,0.0,86,0.00,,,0.00,WUHU216HW,2013-10-12 06:47:00,
2013-10-12 02:52:00,56.2,52.0,29.92,North,0,0.0,0.0,86,0.00,,,0.00,WUHU216HW,2013-10-12 06:52:00,
2013-10-12 02:57:00,56.2,52.0,29.92,North,0,0.0,0.0,86,0.00,,,0.00,WUHU216HW,2013-10-12 06:57:00,
2013-10-12 03:02:00,55.8,51.7,29.92,North,0,0.0,0.0,86,0.00,,,0.00,WUHU216HW,2013-10-12 07:02:00,
2013-10-12 03:07:00,55.6,51.8,29.92,North,0,0.0,0.0,87,0.00,,,0.00,WUHU216HW,2013-10-12 07:07:00,
2013-10-12 03:12:00,55.6,51.8,29.92,North,0,0.0,0.0,87,0.00,,,0.00,WUHU216HW,2013-10-12 07:12:00,
2013-10-12 03:17:00,55.6,51.8,29.92,North,0,0.0,0.0,87,0.00,,,0.00,WUHU216HW,2013-10-12 07:17:00,
2013-10-12 03:22:00,55.4,51.6,29.92,North,0,0.0,0.0,87,0.00,,,0.00,WUHU216HW,2013-10-12 07:22:00,
2013-10-12 03:27:00,55.4,51.6,29.92,North,0,0.0,0.0,87,0.00,,,0.00,WUHU216HW,2013-10-12 07:27:00,
2013-10-12 03:42:00,55.3,51.8,29.93,North,0,0.0,0.0,88,0.00,,,0.00,WUHU216HW,2013-10-12 07:42:00,
2013-10-12 03:47:00,55.3,51.8,29.93,North,0,0.0,0.0,88,0.00,,,0.00,WUHU216HW,2013-10-12 07:47:00,
2013-10-12 04:00:00,55.1,51.2,29.93,North,0,0.0,0.0,87,0.00,,,0.00,WUHU216HW,2013-10-12 08:00:00,
2013-10-12 04:05:00,55.1,51.2,29.93,North,0,0.0,0.0,87,0.00,,,0.00,WUHU216HW,2013-10-12 08:05:00,
2013-10-12 04:10:00,55.1,51.2,29.93,North,0,0.0,0.0,87,0.00,,,0.00,WUHU216HW,2013-10-12 08:10:00,
2013-10-12 04:15:00,54.9,51.0,29.93,North,0,0.0,0.0,87,0.00,,,0.00,WUHU216HW,2013-10-12 08:15:00,
2013-10-12 04:19:00,54.9,51.0,29.92,North,0,0.0,0.0,87,0.00,,,0.00,WUHU216HW,2013-10-12 08:19:00,
2013-10-12 04:24:00,54.9,51.0,29.92,North,0,0.0,0.0,87,0.00,,,0.00,WUHU216HW,2013-10-12 08:24:00,
2013-10-12 04:29:00,54.9,51.0,29.93,North,0,0.0,0.0,87,0.00,,,0.00,WUHU216HW,2013-10-12 08:29:00,
2013-10-12 04:34:00,54.9,51.0,29.93,North,0,0.0,0.0,87,0.00,,,0.00,WUHU216HW,2013-10-12 08:34:00,
2013-10-12 04:40:00,54.7,51.2,29.93,North,0,0.0,0.0,88,0.00,,,0.00,WUHU216HW,2013-10-12 08:40:00,
2013-10-12 04:45:00,54.7,50.9,29.93,North,0,0.0,0.0,87,0.00,,,0.00,WUHU216HW,2013-10-12 08:45:00,
2013-10-12 04:49:00,54.7,50.9,29.93,North,0,0.0,0.0,87,0.00,,,0.00,WUHU216HW,2013-10-12 08:49:00,
2013-10-12 04:54:00,54.7,51.2,29.93,North,0,0.0,0.0,88,0.00,,,0.00,WUHU216HW,2013-10-12 08:54:00,
2013-10-12 04:59:00,54.7,51.2,29.93,North,0,0.0,0.0,88,0.00,,,0.00,WUHU216HW,2013-10-12 08:59:00,
2013-10-12 05:04:00,54.7,51.2,29.93,North,0,0.0,0.0,88,0.00,,,0.00,WUHU216HW,2013-10-12 09:04:00,
2013-10-12 05:09:00,54.7,51.2,29.93,North,0,0.0,0.0,88,0.00,,,0.00,WUHU216HW,2013-10-12 09:09:00,
2013-10-12 05:14:00,54.7,51.2,29.93,North,0,0.0,0.0,88,0.00,,,0.00,WUHU216HW,2013-10-12 09:14:00,
2013-10-12 05:19:00,54.7,51.2,29.93,North,0,0.0,0.0,88,0.00,,,0.00,WUHU216HW,2013-10-12 09:19:00,
2013-10-12 05:24:00,54.7,51.2,29.93,North,0,0.0,0.0,88,0.00,,,0.00,WUHU216HW,2013-10-12 09:24:00,
2013-10-12 05:29:00,54.5,51.0,29.93,North,0,0.0,0.0,88,0.00,,,0.00,WUHU216HW,2013-10-12 09:29:00,
2013-10-12 05:34:00,54.5,51.0,29.93,North,0,0.0,0.0,88,0.00,,,0.00,WUHU216HW,2013-10-12 09:34:00,
2013-10-12 05:39:00,54.4,50.9,29.93,North,0,0.0,0.0,88,0.00,,,0.00,WUHU216HW,2013-10-12 09:39:00,
2013-10-12 05:44:00,54.4,50.9,29.93,North,0,0.0,0.0,88,0.00,,,0.00,WUHU216HW,2013-10-12 09:44:00,
2013-10-12 05:50:00,54.4,50.9,29.93,North,0,0.0,0.0,88,0.00,,,0.00,WUHU216HW,2013-10-12 09:50:00,
2013-10-12 05:55:00,54.2,50.7,29.93,North,0,0.0,0.0,88,0.00,,,0.00,WUHU216HW,2013-10-12 09:55:00,
2013-10-12 06:00:00,54.2,50.7,29.93,North,0,0.0,0.0,88,0.00,,,0.00,WUHU216HW,2013-10-12 10:00:00,
2013-10-12 06:05:00,54.2,50.7,29.94,North,0,0.0,0.0,88,0.00,,,0.00,WUHU216HW,2013-10-12 10:05:00,
2013-10-12 06:10:00,54.2,50.7,29.94,North,0,0.0,0.0,88,0.00,,,0.00,WUHU216HW,2013-10-12 10:10:00,
2013-10-12 06:15:00,54.2,50.7,29.94,North,0,0.0,0.0,88,0.00,,,0.00,WUHU216HW,2013-10-12 10:15:00,
2013-10-12 06:25:00,54.0,50.9,29.94,North,0,0.0,0.0,89,0.00,,,0.00,WUHU216HW,2013-10-12 10:25:00,
2013-10-12 06:30:00,54.0,50.9,29.94,North,0,0.0,0.0,89,0.00,,,0.00,WUHU216HW,2013-10-12 10:30:00,
2013-10-12 07:29:00,52.7,49.6,29.96,North,0,0.0,0.0,89,0.00,,,0.00,WUHU216HW,2013-10-12 11:29:00,
2013-10-12 07:34:00,52.7,49.6,29.96,North,0,0.0,0.0,89,0.00,,,0.00,WUHU216HW,2013-10-12 11:34:00,
2013-10-12 07:39:00,52.7,49.6,29.96,North,0,0.0,0.0,89,0.00,,,0.00,WUHU216HW,2013-10-12 11:39:00,
2013-10-12 07:44:00,52.6,49.4,29.96,North,0,0.0,0.0,89,0.00,,,0.00,WUHU216HW,2013-10-12 11:44:00,
2013-10-12 07:49:00,52.7,49.6,29.96,North,0,0.0,0.0,89,0.00,,,0.00,WUHU216HW,2013-10-12 11:49:00,
2013-10-12 07:54:00,52.7,49.6,29.96,North,0,0.0,0.0,89,0.00,,,0.00,WUHU216HW,2013-10-12 11:54:00,
2013-10-12 07:59:00,52.7,49.6,29.96,North,0,0.0,0.0,89,0.00,,,0.00,WUHU216HW,2013-10-12 11:59:00,
2013-10-12 08:04:00,52.6,49.4,29.96,North,0,0.0,0.0,89,0.00,,,0.00,WUHU216HW,2013-10-12 12:04:00,
2013-10-12 08:09:00,52.6,49.4,29.96,North,0,0.0,0.0,89,0.00,,,0.00,WUHU216HW,2013-10-12 12:09:00,
2013-10-12 08:14:00,52.6,49.4,29.96,North,0,0.0,0.0,89,0.00,,,0.00,WUHU216HW,2013-10-12 12:14:00,
2013-10-12 08:19:00,52.6,49.4,29.96,North,0,0.0,0.0,89,0.00,,,0.00,WUHU216HW,2013-10-12 12:19:00,
2013-10-12 08:24:00,52.6,49.4,29.96,North,0,0.0,0.0,89,0.00,,,0.00,WUHU216HW,2013-10-12 12:24:00,
2013-10-12 08:29:00,52.6,49.4,29.96,North,0,0.0,0.0,89,0.00,,,0.00,WUHU216HW,2013-10-12 12:29:00,
2013-10-12 08:34:00,52.6,49.4,29.96,North,0,0.0,0.0,89,0.00,,,0.00,WUHU216HW,2013-10-12 12:34:00,
2013-10-12 10:00:00,58.5,55.9,29.98,North,0,0.0,0.0,91,0.00,,,0.00,WUHU216HW,2013-10-12 14:00:00,
2013-10-12 10:05:00,59.0,56.4,29.98,North,0,0.0,0.0,91,0.00,,,0.00,WUHU216HW,2013-10-12 14:05:00,
2013-10-12 10:10:00,59.6,56.7,29.98,North,0,0.0,0.0,90,0.00,,,0.00,WUHU216HW,2013-10-12 14:10:00,
2013-10-12 10:15:00,60.1,57.2,29.98,North,0,0.0,0.0,90,0.00,,,0.00,WUHU216HW,2013-10-12 14:15:00,
2013-10-12 10:20:00,60.7,57.4,29.98,North,0,0.0,0.0,89,0.00,,,0.00,WUHU216HW,2013-10-12 14:20:00,
2013-10-12 10:25:00,61.2,58.0,29.98,North,0,0.0,0.0,89,0.00,,,0.00,WUHU216HW,2013-10-12 14:25:00,
2013-10-12 10:30:00,61.6,58.1,29.98,North,0,0.0,0.0,88,0.00,,,0.00,WUHU216HW,2013-10-12 14:30:00,
2013-10-12 10:35:00,62.1,58.2,29.98,North,0,0.0,0.0,87,0.00,,,0.00,WUHU216HW,2013-10-12 14:35:00,
2013-10-12 10:40:00,62.6,58.8,29.99,North,0,0.0,0.0,87,0.00,,,0.00,WUHU216HW,2013-10-12 14:40:00,
2013-10-12 10:45:00,63.2,59.0,29.98,North,0,0.0,0.0,86,0.00,,,0.00,WUHU216HW,2013-10-12 14:45:00,
2013-10-12 10:50:00,63.7,59.1,29.98,North,0,0.0,0.0,85,0.00,,,0.00,WUHU216HW,2013-10-12 14:50:00,
2013-10-12 10:55:00,64.4,59.1,29.99,North,0,0.0,0.0,83,0.00,,,0.00,WUHU216HW,2013-10-12 14:55:00,
2013-10-12 11:00:00,65.2,59.5,29.99,North,0,0.0,0.0,82,0.00,,,0.00,WUHU216HW,2013-10-12 15:00:00,
2013-10-12 11:05:00,65.9,60.9,29.98,North,0,0.0,0.0,84,0.00,,,0.00,WUHU216HW,2013-10-12 15:05:00,
2013-10-12 11:10:00,66.6,61.3,29.98,North,0,0.0,0.0,83,0.00,,,0.00,WUHU216HW,2013-10-12 15:10:00,
2013-10-12 11:15:00,67.3,61.7,29.98,North,0,0.0,0.0,82,0.00,,,0.00,WUHU216HW,2013-10-12 15:15:00,
2013-10-12 11:20:00,68.0,61.0,29.98,North,0,0.0,0.0,78,0.00,,,0.00,WUHU216HW,2013-10-12 15:20:00,
2013-10-12 11:25:00,68.8,62.4,29.97,North,0,0.0,0.0,80,0.00,,,0.00,WUHU216HW,2013-10-12 15:25:00,
2013-10-12 11:30:00,69.5,62.3,29.98,North,0,0.0,0.0,78,0.00,,,0.00,WUHU216HW,2013-10-12 15:30:00,
2013-10-12 11:35:00,70.0,62.8,29.98,North,0,0.0,0.0,78,0.00,,,0.00,WUHU216HW,2013-10-12 15:35:00,
2013-10-12 11:40:00,70.6,61.8,29.98,North,0,0.0,0.0,74,0.00,,,0.00,WUHU216HW,2013-10-12 15:40:00,
2013-10-12 11:45:00,70.9,62.6,29.98,North,0,0.0,0.0,75,0.00,,,0.00,WUHU216HW,2013-10-12 15:45:00,
2013-10-12 11:50:00,71.6,62.9,29.98,North,0,0.0,0.0,74,0.00,,,0.00,WUHU216HW,2013-10-12 15:50:00,
2013-10-12 11:55:00,72.2,62.6,29.97,North,0,0.0,0.0,72,0.00,,,0.00,WUHU216HW,2013-10-12 15:55:00,
2013-10-12 12:00:00,72.7,63.2,29.98,North,0,0.0,0.0,72,0.00,,,0.00,WUHU216HW,2013-10-12 16:00:00,
2013-10-12 12:05:00,73.1,61.5,29.97,North,0,0.0,0.0,67,0.00,,,0.00,WUHU216HW,2013-10-12 16:05:00,
2013-10-12 12:10:00,73.1,61.5,29.97,North,0,0.0,0.0,67,0.00,,,0.00,WUHU216HW,2013-10-12 16:10:00,
2013-10-12 12:34:00,75.4,63.3,29.97,North,0,0.0,0.0,66,0.00,,,0.00,WUHU216HW,2013-10-12 16:34:00,
2013-10-12 12:39:00,76.5,64.3,29.97,North,0,0.0,0.0,66,0.00,,,0.00,WUHU216HW,2013-10-12 16:39:00,
2013-10-12 12:44:00,76.5,63.8,29.97,North,0,0.0,0.0,65,0.00,,,0.00,WUHU216HW,2013-10-12 16:44:00,
2013-10-12 12:49:00,76.0,61.1,29.97,North,0,0.0,0.0,60,0.00,,,0.00,WUHU216HW,2013-10-12 16:49:00,
2013-10-12 12:54:00,76.7,61.7,29.97,North,0,0.0,0.0,60,0.00,,,0.00,WUHU216HW,2013-10-12 16:54:00,
2013-10-12 12:58:00,77.0,60.1,29.97,North,0,0.0,0.0,56,0.00,,,0.00,WUHU216HW,2013-10-12 16:58:00,
2013-10-12 13:03:00,77.4,62.9,29.97,North,0,0.0,0.0,61,0.00,,,0.00,WUHU216HW,2013-10-12 17:03:00,
2013-10-12 13:08:00,78.3,62.8,29.97,North,0,0.0,0.0,59,0.00,,,0.00,WUHU216HW,2013-10-12 17:08:00,
2013-10-12 13:13:00,78.3,62.4,29.97,North,0,0.0,0.0,58,0.00,,,0.00,WUHU216HW,2013-10-12 17:13:00,
2013-10-12 13:18:00,78.7,62.6,29.97,North,0,0.0,0.0,58,0.00,,,0.00,WUHU216HW,2013-10-12 17:18:00,
2013-10-12 13:23:00,78.8,61.8,29.97,North,0,0.0,0.0,56,0.00,,,0.00,WUHU216HW,2013-10-12 17:23:00,
2013-10-12 13:28:00,78.8,61.3,29.97,North,0,0.0,0.0,55,0.00,,,0.00,WUHU216HW,2013-10-12 17:28:00,
2013-10-12 13:33:00,78.5,59.4,29.96,North,0,0.0,0.0,52,0.00,,,0.00,WUHU216HW,2013-10-12 17:33:00,
2013-10-12 13:38:00,78.1,61.1,29.96,North,0,0.0,0.0,56,0.00,,,0.00,WUHU216HW,2013-10-12 17:38:00,
2013-10-12 13:43:00,78.8,61.3,29.96,North,0,0.0,0.0,55,0.00,,,0.00,WUHU216HW,2013-10-12 17:43:00,
2013-10-12 13:48:00,79.7,62.7,29.96,North,0,0.0,0.0,56,0.00,,,0.00,WUHU216HW,2013-10-12 17:48:00,
2013-10-12 13:53:00,79.6,61.9,29.96,North,0,0.0,0.0,55,0.00,,,0.00,WUHU216HW,2013-10-12 17:53:00,
2013-10-12 13:58:00,79.4,60.8,29.96,North,0,0.0,0.0,53,0.00,,,0.00,WUHU216HW,2013-10-12 17:58:00,
2013-10-12 14:03:00,79.6,60.4,29.96,North,0,0.0,0.0,52,0.00,,,0.00,WUHU216HW,2013-10-12 18:03:00,
2013-10-12 14:08:00,79.9,61.2,29.96,North,0,0.0,0.0,53,0.00,,,0.00,WUHU216HW,2013-10-12 18:08:00,
2013-10-12 14:13:00,79.7,60.6,29.96,North,0,0.0,0.0,52,0.00,,,0.00,WUHU216HW,2013-10-12 18:13:00,
2013-10-12 14:18:00,79.7,60.6,29.96,North,0,0.0,0.0,52,0.00,,,0.00,WUHU216HW,2013-10-12 18:18:00,
2013-10-12 15:00:00,78.5,61.5,29.96,North,0,0.0,0.0,56,0.00,,,0.00,WUHU216HW,2013-10-12 19:00:00,
2013-10-12 15:05:00,78.1,62.2,29.96,North,0,0.0,0.0,58,0.00,,,0.00,WUHU216HW,2013-10-12 19:05:00,
2013-10-12 15:10:00,77.6,61.7,29.96,North,0,0.0,0.0,58,0.00,,,0.00,WUHU216HW,2013-10-12 19:10:00,
2013-10-12 15:15:00,77.6,62.1,29.96,North,0,0.0,0.0,59,0.00,,,0.00,WUHU216HW,2013-10-12 19:15:00,
2013-10-12 15:20:00,77.9,63.0,29.96,North,0,0.0,0.0,60,0.00,,,0.00,WUHU216HW,2013-10-12 19:20:00,
2013-10-12 15:25:00,78.1,63.2,29.96,North,0,0.0,0.0,60,0.00,,,0.00,WUHU216HW,2013-10-12 19:25:00,
2013-10-12 15:29:00,77.9,62.5,29.96,North,0,0.0,0.0,59,0.00,,,0.00,WUHU216HW,2013-10-12 19:29:00,
2013-10-12 15:34:00,77.9,61.5,29.96,North,0,0.0,0.0,57,0.00,,,0.00,WUHU216HW,2013-10-12 19:34:00,
2013-10-12 15:39:00,77.8,61.8,29.96,North,0,0.0,0.0,58,0.00,,,0.00,WUHU216HW,2013-10-12 19:39:00,
2013-10-12 15:44:00,77.8,61.8,29.96,North,0,0.0,0.0,58,0.00,,,0.00,WUHU216HW,2013-10-12 19:44:00,
2013-10-12 15:49:00,77.6,61.1,29.96,North,0,0.0,0.0,57,0.00,,,0.00,WUHU216HW,2013-10-12 19:49:00,
2013-10-12 15:54:00,77.0,61.6,29.96,North,0,0.0,0.0,59,0.00,,,0.00,WUHU216HW,2013-10-12 19:54:00,
2013-10-12 15:59:00,77.0,61.6,29.96,North,0,0.0,0.0,59,0.00,,,0.00,WUHU216HW,2013-10-12 19:59:00,
2013-10-12 16:04:00,77.0,61.6,29.96,North,0,0.0,0.0,59,0.00,,,0.00,WUHU216HW,2013-10-12 20:04:00,
2013-10-12 16:09:00,76.7,61.3,29.96,North,0,0.0,0.0,59,0.00,,,0.00,WUHU216HW,2013-10-12 20:09:00,
2013-10-12 16:14:00,76.7,60.8,29.96,North,0,0.0,0.0,58,0.00,,,0.00,WUHU216HW,2013-10-12 20:14:00,
2013-10-12 16:19:00,76.7,61.3,29.96,North,0,0.0,0.0,59,0.00,,,0.00,WUHU216HW,2013-10-12 20:19:00,
2013-10-12 16:24:00,76.7,61.7,29.95,North,0,0.0,0.0,60,0.00,,,0.00,WUHU216HW,2013-10-12 20:24:00,
2013-10-12 16:29:00,76.7,61.3,29.95,North,0,0.0,0.0,59,0.00,,,0.00,WUHU216HW,2013-10-12 20:29:00,
2013-10-12 16:34:00,76.7,61.3,29.95,North,0,0.0,0.0,59,0.00,,,0.00,WUHU216HW,2013-10-12 20:34:00,
2013-10-12 16:39:00,76.7,61.3,29.95,North,0,0.0,0.0,59,0.00,,,0.00,WUHU216HW,2013-10-12 20:39:00,
2013-10-12 16:44:00,76.5,61.1,29.95,North,0,0.0,0.0,59,0.00,,,0.00,WUHU216HW,2013-10-12 20:44:00,
2013-10-12 16:49:00,76.3,61.5,29.96,North,0,0.0,0.0,60,0.00,,,0.00,WUHU216HW,2013-10-12 20:49:00,
2013-10-12 16:54:00,76.0,60.7,29.96,North,0,0.0,0.0,59,0.00,,,0.00,WUHU216HW,2013-10-12 20:54:00,
2013-10-12 16:59:00,76.0,60.7,29.96,North,0,0.0,0.0,59,0.00,,,0.00,WUHU216HW,2013-10-12 20:59:00,
2013-10-12 17:04:00,76.0,60.7,29.96,North,0,0.0,0.0,59,0.00,,,0.00,WUHU216HW,2013-10-12 21:04:00,
2013-10-12 17:09:00,75.8,60.9,29.96,North,0,0.0,0.0,60,0.00,,,0.00,WUHU216HW,2013-10-12 21:09:00,
2013-10-12 17:14:00,75.2,61.4,29.96,North,0,0.0,0.0,62,0.00,,,0.00,WUHU216HW,2013-10-12 21:14:00,
2013-10-12 17:19:00,75.1,61.2,29.96,North,0,0.0,0.0,62,0.00,,,0.00,WUHU216HW,2013-10-12 21:19:00,
2013-10-12 17:24:00,75.1,60.8,29.96,North,0,0.0,0.0,61,0.00,,,0.00,WUHU216HW,2013-10-12 21:24:00,
2013-10-12 17:29:00,74.9,60.1,29.96,North,0,0.0,0.0,60,0.00,,,0.00,WUHU216HW,2013-10-12 21:29:00,
2013-10-12 17:34:00,74.5,60.7,29.96,North,0,0.0,0.0,62,0.00,,,0.00,WUHU216HW,2013-10-12 21:34:00,
2013-10-12 17:39:00,74.5,61.1,29.96,North,0,0.0,0.0,63,0.00,,,0.00,WUHU216HW,2013-10-12 21:39:00,
2013-10-12 17:44:00,74.2,61.2,29.96,North,0,0.0,0.0,64,0.00,,,0.00,WUHU216HW,2013-10-12 21:44:00,
2013-10-12 17:49:00,73.8,61.8,29.96,North,0,0.0,0.0,66,0.00,,,0.00,WUHU216HW,2013-10-12 21:49:00,
2013-10-12 17:54:00,73.6,61.6,29.96,North,0,0.0,0.0,66,0.00,,,0.00,WUHU216HW,2013-10-12 21:54:00,
2013-10-12 17:59:00,73.4,61.4,29.96,North,0,0.0,0.0,66,0.00,,,0.00,WUHU216HW,2013-10-12 21:59:00,
2013-10-12 18:04:00,72.7,60.7,29.97,North,0,0.0,0.0,66,0.00,,,0.00,WUHU216HW,2013-10-12 22:04:00,
2013-10-12 18:09:00,72.5,60.9,29.97,North,0,0.0,0.0,67,0.00,,,0.00,WUHU216HW,2013-10-12 22:09:00,
2013-10-12 18:14:00,72.2,61.0,29.97,North,0,0.0,0.0,68,0.00,,,0.00,WUHU216HW,2013-10-12 22:14:00,
2013-10-12 18:19:00,71.8,61.1,29.97,North,0,0.0,0.0,69,0.00,,,0.00,WUHU216HW,2013-10-12 22:19:00,
2013-10-12 18:24:00,71.5,60.8,29.97,North,0,0.0,0.0,69,0.00,,,0.00,WUHU216HW,2013-10-12 22:24:00,
2013-10-12 18:29:00,71.1,60.4,29.97,North,0,0.0,0.0,69,0.00,,,0.00,WUHU216HW,2013-10-12 22:29:00,
2013-10-12 18:34:00,70.9,60.7,29.97,North,0,0.0,0.0,70,0.00,,,0.00,WUHU216HW,2013-10-12 22:34:00,
2013-10-12 18:39:00,70.6,60.3,29.97,North,0,0.0,0.0,70,0.00,,,0.00,WUHU216HW,2013-10-12 22:39:00,
2013-10-12 18:44:00,70.4,60.1,29.97,North,0,0.0,0.0,70,0.00,,,0.00,WUHU216HW,2013-10-12 22:44:00,
2013-10-12 18:49:00,70.2,60.3,29.97,North,0,0.0,0.0,71,0.00,,,0.00,WUHU216HW,2013-10-12 22:49:00,
2013-10-12 18:54:00,70.0,60.1,29.97,North,0,0.0,0.0,71,0.00,,,0.00,WUHU216HW,2013-10-12 22:54:00,
2013-10-12 18:59:00,69.8,60.3,29.97,North,0,0.0,0.0,72,0.00,,,0.00,WUHU216HW,2013-10-12 22:59:00,
2013-10-12 19:04:00,69.7,60.2,29.97,North,0,0.0,0.0,72,0.00,,,0.00,WUHU216HW,2013-10-12 23:04:00,
2013-10-12 19:09:00,69.5,60.0,29.97,North,0,0.0,0.0,72,0.00,,,0.00,WUHU216HW,2013-10-12 23:09:00,
2013-10-12 19:14:00,69.3,59.9,29.97,North,0,0.0,0.0,72,0.00,,,0.00,WUHU216HW,2013-10-12 23:14:00,
2013-10-12 19:19:00,69.3,60.2,29.97,North,0,0.0,0.0,73,0.00,,,0.00,WUHU216HW,2013-10-12 23:19:00,
2013-10-12 19:24:00,68.9,60.3,29.97,North,0,0.0,0.0,74,0.00,,,0.00,WUHU216HW,2013-10-12 23:24:00,
2013-10-12 19:29:00,68.6,59.9,29.97,North,0,0.0,0.0,74,0.00,,,0.00,WUHU216HW,2013-10-12 23:29:00,
2013-10-12 19:34:00,68.2,60.0,29.97,North,0,0.0,0.0,75,0.00,,,0.00,WUHU216HW,2013-10-12 23:34:00,
2013-10-12 19:39:00,68.0,59.9,29.97,North,0,0.0,0.0,75,0.00,,,0.00,WUHU216HW,2013-10-12 23:39:00,
2013-10-12 19:44:00,67.7,60.2,29.97,North,0,0.0,0.0,77,0.00,,,0.00,WUHU216HW,2013-10-12 23:44:00,
2013-10-12 19:49:00,67.3,60.3,29.97,North,0,0.0,0.0,78,0.00,,,0.00,WUHU216HW,2013-10-12 23:49:00,
2013-10-12 19:54:00,67.1,60.1,29.97,North,0,0.0,0.0,78,0.00,,,0.00,WUHU216HW,2013-10-12 23:54:00,
2013-10-12 19:59:00,67.0,60.0,29.97,North,0,0.0,0.0,78,0.00,,,0.00,WUHU216HW,2013-10-12 23:59:00,
2013-10-12 20:04:00,66.8,60.1,29.97,North,0,0.0,0.0,79,0.00,,,0.00,WUHU216HW,2013-10-13 00:04:00,
2013-10-12 20:09:00,66.6,60.0,29.97,North,0,0.0,0.0,79,0.00,,,0.00,WUHU216HW,2013-10-13 00:09:00,
2013-10-12 20:14:00,66.4,59.8,29.97,North,0,0.0,0.0,79,0.00,,,0.00,WUHU216HW,2013-10-13 00:14:00,
2013-10-12 20:19:00,66.4,59.8,29.97,North,0,0.0,0.0,79,0.00,,,0.00,WUHU216HW,2013-10-13 00:19:00,
2013-10-12 20:24:00,66.2,59.6,29.97,North,0,0.0,0.0,79,0.00,,,0.00,WUHU216HW,2013-10-13 00:24:00,
2013-10-12 20:29:00,65.9,59.6,29.97,North,0,0.0,0.0,80,0.00,,,0.00,WUHU216HW,2013-10-13 00:29:00,
2013-10-12 20:34:00,65.7,59.4,29.97,North,0,0.0,0.0,80,0.00,,,0.00,WUHU216HW,2013-10-13 00:34:00,
2013-10-12 20:39:00,65.5,59.6,29.97,North,0,0.0,0.0,81,0.00,,,0.00,WUHU216HW,2013-10-13 00:39:00,
2013-10-12 20:44:00,65.2,58.9,29.97,North,0,0.0,0.0,80,0.00,,,0.00,WUHU216HW,2013-10-13 00:44:00,
2013-10-12 20:49:00,65.0,58.7,29.98,North,0,0.0,0.0,80,0.00,,,0.00,WUHU216HW,2013-10-13 00:49:00,
2013-10-12 20:54:00,65.0,59.1,29.98,North,0,0.0,0.0,81,0.00,,,0.00,WUHU216HW,2013-10-13 00:54:00,
2013-10-12 20:59:00,64.8,58.5,29.98,North,0,0.0,0.0,80,0.00,,,0.00,WUHU216HW,2013-10-13 00:59:00,
2013-10-12 21:04:00,64.8,58.5,29.98,North,0,0.0,0.0,80,0.00,,,0.00,WUHU216HW,2013-10-13 01:04:00,
2013-10-12 21:09:00,64.6,58.3,29.98,North,0,0.0,0.0,80,0.00,,,0.00,WUHU216HW,2013-10-13 01:09:00,
2013-10-12 21:14:00,64.4,58.1,29.98,North,0,0.0,0.0,80,0.00,,,0.00,WUHU216HW,2013-10-13 01:14:00,
2013-10-12 21:19:00,64.3,58.0,29.98,North,0,0.0,0.0,80,0.00,,,0.00,WUHU216HW,2013-10-13 01:19:00,
2013-10-12 21:24:00,64.3,58.3,29.98,North,0,0.0,0.0,81,0.00,,,0.00,WUHU216HW,2013-10-13 01:24:00,
2013-10-12 21:29:00,63.7,58.2,29.99,North,0,0.0,0.0,82,0.00,,,0.00,WUHU216HW,2013-10-13 01:29:00,
2013-10-12 21:34:00,63.7,57.8,29.99,North,0,0.0,0.0,81,0.00,,,0.00,WUHU216HW,2013-10-13 01:34:00,
2013-10-12 21:39:00,63.7,57.8,29.99,North,0,0.0,0.0,81,0.00,,,0.00,WUHU216HW,2013-10-13 01:39:00,
2013-10-12 21:44:00,63.5,57.6,29.99,North,0,0.0,0.0,81,0.00,,,0.00,WUHU216HW,2013-10-13 01:44:00,
2013-10-12 21:49:00,63.4,57.4,29.99,North,0,0.0,0.0,81,0.00,,,0.00,WUHU216HW,2013-10-13 01:49:00,
2013-10-12 21:54:00,63.0,57.1,29.99,North,0,0.0,0.0,81,0.00,,,0.00,WUHU216HW,2013-10-13 01:54:00,
2013-10-12 21:57:00,63.0,57.1,29.99,North,0,0.0,0.0,81,0.00,,,0.00,WUHU216HW,2013-10-13 01:57:00,
2013-10-12 22:02:00,63.0,57.1,29.99,North,0,0.0,0.0,81,0.00,,,0.00,WUHU216HW,2013-10-13 02:02:00,
2013-10-12 22:07:00,63.0,57.4,29.99,North,0,0.0,0.0,82,0.00,,,0.00,WUHU216HW,2013-10-13 02:07:00,
2013-10-12 22:12:00,62.8,57.3,29.99,North,0,0.0,0.0,82,0.00,,,0.00,WUHU216HW,2013-10-13 02:12:00,
2013-10-12 22:17:00,62.6,57.1,29.99,North,0,0.0,0.0,82,0.00,,,0.00,WUHU216HW,2013-10-13 02:17:00,
2013-10-12 22:22:00,62.5,56.9,29.99,North,0,0.0,0.0,82,0.00,,,0.00,WUHU216HW,2013-10-13 02:22:00,
2013-10-12 22:27:00,62.3,56.7,29.99,North,0,0.0,0.0,82,0.00,,,0.00,WUHU216HW,2013-10-13 02:27:00,
2013-10-12 22:32:00,62.3,56.7,29.99,North,0,0.0,0.0,82,0.00,,,0.00,WUHU216HW,2013-10-13 02:32:00,
2013-10-12 22:37:00,62.1,56.9,30.00,North,0,0.0,0.0,83,0.00,,,0.00,WUHU216HW,2013-10-13 02:37:00,
2013-10-12 22:42:00,61.9,56.7,30.00,North,0,0.0,0.0,83,0.00,,,0.00,WUHU216HW,2013-10-13 02:42:00,
2013-10-12 22:47:00,61.9,56.7,30.00,North,0,0.0,0.0,83,0.00,,,0.00,WUHU216HW,2013-10-13 02:47:00,
2013-10-12 22:52:00,61.7,56.5,30.01,North,0,0.0,0.0,83,0.00,,,0.00,WUHU216HW,2013-10-13 02:52:00,
2013-10-12 22:57:00,61.7,56.5,30.01,North,0,0.0,0.0,83,0.00,,,0.00,WUHU216HW,2013-10-13 02:57:00,
2013-10-12 23:02:00,61.6,56.3,30.01,North,0,0.0,0.0,83,0.00,,,0.00,WUHU216HW,2013-10-13 03:02:00,
2013-10-12 23:07:00,61.4,56.2,30.01,North,0,0.0,0.0,83,0.00,,,0.00,WUHU216HW,2013-10-13 03:07:00,
2013-10-12 23:12:00,61.2,56.1,30.01,North,0,0.0,0.0,83,0.00,,,0.00,WUHU216HW,2013-10-13 03:12:00,
2013-10-12 23:17:00,60.8,55.7,30.01,North,0,0.0,0.0,83,0.00,,,0.00,WUHU216HW,2013-10-13 03:17:00,
2013-10-12 23:22:00,60.8,56.0,30.01,North,0,0.0,0.0,84,0.00,,,0.00,WUHU216HW,2013-10-13 03:22:00,
2013-10-12 23:27:00,60.8,55.7,30.02,North,0,0.0,0.0,83,0.00,,,0.00,WUHU216HW,2013-10-13 03:27:00,
2013-10-12 23:32:00,60.7,55.8,30.02,North,0,0.0,0.0,84,0.00,,,0.00,WUHU216HW,2013-10-13 03:32:00,
2013-10-12 23:37:00,60.7,55.8,30.02,North,0,0.0,0.0,84,0.00,,,0.00,WUHU216HW,2013-10-13 03:37:00,
2013-10-12 23:42:00,60.7,55.8,30.02,North,0,0.0,0.0,84,0.00,,,0.00,WUHU216HW,2013-10-13 03:42:00,
2013-10-12 23:47:00,60.5,55.6,30.02,North,0,0.0,0.0,84,0.00,,,0.00,WUHU216HW,2013-10-13 03:47:00,
2013-10-12 23:52:00,60.5,55.6,30.01,North,0,0.0,0.0,84,0.00,,,0.00,WUHU216HW,2013-10-13 03:52:00,
2013-10-12 23:57:00,60.5,56.0,30.02,North,0,0.0,0.0,85,0.00,,,0.00,WUHU216HW,2013-10-13 03:57:00,